createdAt,value
2018-07-29T00:00:53.395Z,2.50
2018-07-29T00:03:21.499Z,2.60
2018-07-29T00:05:49.930Z,2.80
2018-07-29T00:08:18.351Z,2.42
2018-07-29T00:10:46.804Z,2.37
2018-07-29T00:13:15.234Z,2.60
2018-07-29T00:15:43.702Z,2.72
2018-07-29T00:18:12.140Z,2.67
2018-07-29T00:20:40.629Z,2.90
2018-07-29T00:23:09.018Z,2.40
2018-07-29T00:25:37.464Z,2.45
2018-07-29T00:28:06.248Z,2.95
2018-07-29T00:30:34.745Z,2.90
2018-07-29T00:33:03.154Z,2.65
2018-07-29T00:35:31.611Z,2.62
2018-07-29T00:38:00.002Z,2.65
2018-07-29T00:40:28.441Z,2.77
2018-07-29T00:42:56.868Z,2.83
2018-07-29T00:45:25.341Z,2.80
2018-07-29T00:47:53.744Z,2.80
2018-07-29T00:50:22.151Z,3.10
2018-07-29T00:52:50.640Z,2.95
2018-07-29T00:55:19.056Z,2.90
2018-07-29T00:57:47.520Z,3.00
2018-07-29T01:00:15.933Z,3.22
2018-07-29T01:02:44.372Z,2.65
2018-07-29T01:05:12.804Z,3.17
2018-07-29T01:07:41.257Z,2.80
2018-07-29T01:10:09.669Z,3.02
2018-07-29T01:12:38.113Z,2.85
2018-07-29T01:15:06.589Z,2.98
2018-07-29T01:17:35.037Z,2.72
2018-07-29T01:20:03.515Z,3.05
2018-07-29T01:22:31.957Z,3.52
2018-07-29T01:25:00.389Z,3.35
2018-07-29T01:27:28.825Z,3.20
2018-07-29T01:29:57.310Z,3.10
2018-07-29T01:32:25.790Z,3.72
2018-07-29T01:34:54.226Z,3.15
2018-07-29T01:37:22.779Z,2.62
2018-07-29T01:39:51.201Z,3.25
2018-07-29T01:42:19.693Z,3.62
2018-07-29T01:44:48.117Z,3.02
2018-07-29T01:47:16.553Z,3.33
2018-07-29T01:49:44.940Z,3.42
2018-07-29T01:52:13.386Z,3.87
2018-07-29T01:54:41.768Z,3.17
2018-07-29T01:57:10.245Z,3.17
2018-07-29T01:59:38.665Z,3.27
2018-07-29T02:02:07.100Z,3.30
2018-07-29T02:04:35.504Z,3.62
2018-07-29T02:07:03.961Z,3.25
2018-07-29T02:09:32.348Z,2.95
2018-07-29T02:12:00.792Z,3.00
2018-07-29T02:14:29.194Z,3.00
2018-07-29T02:16:57.324Z,3.08
2018-07-29T02:19:25.726Z,3.05
2018-07-29T02:21:54.209Z,3.37
2018-07-29T02:24:22.620Z,3.67
2018-07-29T02:26:51.083Z,4.72
2018-07-29T02:29:19.648Z,3.02
2018-07-29T02:31:47.802Z,3.37
2018-07-29T02:34:16.201Z,2.85
2018-07-29T02:36:44.601Z,2.83
2018-07-29T02:39:13.532Z,3.17
2018-07-29T02:41:42.026Z,3.33
2018-07-29T02:44:10.464Z,4.47
2018-07-29T02:47:09.029Z,3.35
2018-07-29T02:49:37.437Z,3.75
2018-07-29T02:52:05.906Z,3.67
2018-07-29T02:54:34.353Z,3.60
2018-07-29T02:57:02.806Z,3.45
2018-07-29T02:59:31.213Z,4.08
2018-07-29T03:01:59.638Z,3.47
2018-07-29T03:04:28.086Z,3.37
2018-07-29T03:06:56.511Z,3.27
2018-07-29T03:09:24.940Z,3.83
2018-07-29T03:11:53.382Z,3.10
2018-07-29T03:14:21.853Z,3.60
2018-07-29T03:16:50.294Z,3.20
2018-07-29T03:19:18.742Z,3.08
2018-07-29T03:21:47.197Z,3.30
2018-07-29T03:24:15.648Z,3.22
2018-07-29T03:26:44.081Z,3.25
2018-07-29T03:29:12.516Z,3.27
2018-07-29T03:31:40.942Z,3.22
2018-07-29T03:34:09.375Z,3.35
2018-07-29T03:36:37.792Z,2.87
2018-07-29T03:39:08.608Z,3.20
2018-07-29T03:41:37.118Z,2.62
2018-07-29T03:44:06.000Z,2.98
2018-07-29T03:46:34.413Z,2.85
2018-07-29T03:49:02.848Z,2.37
2018-07-29T03:51:31.272Z,3.27
2018-07-29T03:53:59.757Z,3.40
2018-07-29T03:56:28.191Z,3.25
2018-07-29T03:58:56.616Z,3.70
2018-07-29T04:01:25.012Z,2.95
2018-07-29T04:03:53.472Z,3.17
2018-07-29T04:06:21.899Z,2.83
2018-07-29T04:08:50.337Z,3.52
2018-07-29T04:11:18.743Z,3.20
2018-07-29T04:13:47.196Z,3.45
2018-07-29T04:16:15.637Z,2.83
2018-07-29T04:18:44.087Z,2.95
2018-07-29T04:21:12.513Z,3.17
2018-07-29T04:23:40.972Z,2.98
2018-07-29T04:26:09.396Z,3.50
2018-07-29T04:28:37.948Z,3.17
2018-07-29T04:31:06.081Z,3.02
2018-07-29T04:33:34.540Z,3.42
2018-07-29T04:36:02.972Z,3.40
2018-07-29T04:38:31.400Z,3.60
2018-07-29T04:41:00.040Z,3.10
2018-07-29T04:43:28.560Z,3.22
2018-07-29T04:45:57.072Z,3.02
2018-07-29T04:48:25.486Z,2.98
2018-07-29T04:50:53.925Z,3.10
2018-07-29T04:53:22.493Z,2.92
2018-07-29T04:55:51.106Z,3.02
2018-07-29T04:58:19.200Z,2.85
2018-07-29T05:00:47.648Z,3.20
2018-07-29T05:03:16.072Z,2.80
2018-07-29T05:05:44.552Z,2.95
2018-07-29T05:08:12.958Z,2.95
2018-07-29T05:10:41.408Z,2.67
2018-07-29T05:13:09.535Z,2.87
2018-07-29T05:15:38.005Z,2.83
2018-07-29T05:18:06.410Z,2.80
2018-07-29T05:20:34.874Z,2.70
2018-07-29T05:23:03.369Z,2.50
2018-07-29T05:25:31.862Z,2.72
2018-07-29T05:28:00.376Z,2.65
2018-07-29T05:30:28.818Z,2.83
2018-07-29T05:32:57.272Z,3.33
2018-07-29T05:35:25.731Z,2.92
2018-07-29T05:37:54.134Z,2.52
2018-07-29T05:40:22.576Z,3.58
2018-07-29T05:42:51.017Z,2.80
2018-07-29T05:45:19.509Z,2.55
2018-07-29T05:47:47.942Z,2.75
2018-07-29T05:50:16.376Z,2.80
2018-07-29T05:52:44.806Z,2.25
2018-07-29T05:55:13.240Z,2.02
2018-07-29T05:57:41.648Z,2.60
2018-07-29T06:00:10.569Z,2.42
2018-07-29T06:02:39.008Z,2.40
2018-07-29T06:05:08.155Z,2.87
2018-07-29T06:07:36.584Z,2.67
2018-07-29T06:10:05.694Z,2.90
2018-07-29T06:12:34.373Z,2.22
2018-07-29T06:15:03.013Z,2.55
2018-07-29T06:17:31.446Z,2.50
2018-07-29T06:19:59.899Z,2.92
2018-07-29T06:22:28.328Z,2.20
2018-07-29T06:24:56.757Z,2.25
2018-07-29T06:27:25.213Z,1.90
2018-07-29T06:29:53.670Z,2.17
2018-07-29T06:32:22.124Z,2.05
2018-07-29T06:34:50.561Z,2.15
2018-07-29T06:37:19.031Z,2.40
2018-07-29T06:39:47.483Z,2.33
2018-07-29T06:42:15.937Z,2.10
2018-07-29T06:44:44.408Z,2.27
2018-07-29T06:47:12.891Z,2.33
2018-07-29T06:49:41.297Z,2.33
2018-07-29T06:52:09.732Z,2.60
2018-07-29T06:54:38.180Z,2.77
2018-07-29T06:57:06.654Z,2.17
2018-07-29T06:59:35.074Z,3.00
2018-07-29T07:02:03.550Z,2.98
2018-07-29T07:04:32.062Z,2.80
2018-07-29T07:07:00.552Z,2.87
2018-07-29T07:09:28.982Z,2.60
2018-07-29T07:11:57.441Z,3.00
2018-07-29T07:14:25.930Z,2.35
2018-07-29T07:16:54.388Z,2.87
2018-07-29T07:19:22.812Z,2.72
2018-07-29T07:21:51.261Z,3.10
2018-07-29T07:24:19.675Z,3.58
2018-07-29T07:26:48.137Z,3.37
2018-07-29T07:29:16.261Z,2.98
2018-07-29T07:31:44.722Z,3.25
2018-07-29T07:34:13.177Z,3.50
2018-07-29T07:36:41.686Z,3.33
2018-07-29T07:39:10.083Z,3.25
2018-07-29T07:41:38.532Z,2.72
2018-07-29T07:44:06.997Z,3.40
2018-07-29T07:46:35.449Z,3.50
2018-07-29T07:49:03.926Z,3.27
2018-07-29T07:51:32.395Z,3.77
2018-07-29T07:54:00.933Z,3.87
2018-07-29T07:56:29.448Z,3.50
2018-07-29T07:58:58.907Z,3.67
2018-07-29T08:01:27.444Z,3.42
2018-07-29T08:03:55.920Z,3.35
2018-07-29T08:06:24.364Z,3.37
2018-07-29T08:08:52.781Z,4.00
2018-07-29T08:11:21.235Z,4.30
2018-07-29T08:13:50.416Z,4.30
2018-07-29T08:16:19.294Z,3.72
2018-07-29T08:18:48.185Z,3.40
2018-07-29T08:21:16.644Z,3.62
2018-07-29T08:23:45.105Z,3.90
2018-07-29T08:26:13.667Z,3.47
2018-07-29T08:28:42.218Z,3.80
2018-07-29T08:31:10.669Z,3.75
2018-07-29T08:33:39.216Z,3.40
2018-07-29T08:36:07.613Z,3.27
2018-07-29T08:38:36.091Z,2.77
2018-07-29T08:41:04.568Z,3.40
2018-07-29T08:43:33.072Z,3.65
2018-07-29T08:46:01.508Z,3.42
2018-07-29T08:48:29.990Z,3.52
2018-07-29T08:50:58.401Z,3.60
2018-07-29T08:53:26.884Z,3.60
2018-07-29T08:55:55.306Z,3.17
2018-07-29T08:58:23.850Z,3.08
2018-07-29T09:00:52.208Z,3.20
2018-07-29T09:03:20.657Z,3.10
2018-07-29T09:05:49.065Z,3.12
2018-07-29T09:08:17.211Z,3.25
2018-07-29T09:10:45.756Z,2.70
2018-07-29T09:13:14.219Z,2.65
2018-07-29T09:15:42.822Z,3.35
2018-07-29T09:18:11.271Z,3.22
2018-07-29T09:20:39.708Z,3.52
2018-07-29T09:23:08.155Z,3.70
2018-07-29T09:25:36.620Z,3.25
2018-07-29T09:28:05.080Z,3.17
2018-07-29T09:30:33.616Z,3.33
2018-07-29T09:33:01.935Z,2.90
2018-07-29T09:35:30.380Z,2.75
2018-07-29T09:37:58.520Z,3.02
2018-07-29T09:40:26.956Z,2.80
2018-07-29T09:42:55.413Z,2.62
2018-07-29T09:45:23.664Z,2.47
2018-07-29T09:47:51.981Z,2.72
2018-07-29T09:50:20.412Z,2.83
2018-07-29T09:52:49.139Z,3.20
2018-07-29T09:55:17.555Z,2.55
2018-07-29T09:57:45.989Z,2.83
2018-07-29T10:00:14.393Z,2.65
2018-07-29T10:02:42.863Z,2.80
2018-07-29T10:05:11.309Z,2.45
2018-07-29T10:07:39.714Z,2.42
2018-07-29T10:10:08.158Z,2.30
2018-07-29T10:12:36.552Z,2.42
2018-07-29T10:15:05.042Z,2.20
2018-07-29T10:17:33.468Z,2.17
2018-07-29T10:20:01.925Z,2.37
2018-07-29T10:22:30.373Z,2.25
2018-07-29T10:24:58.808Z,2.47
2018-07-29T10:27:27.249Z,2.77
2018-07-29T10:29:55.688Z,2.62
2018-07-29T10:32:24.121Z,2.40
2018-07-29T10:34:52.558Z,2.40
2018-07-29T10:37:20.988Z,2.40
2018-07-29T10:39:49.514Z,2.30
2018-07-29T10:42:17.974Z,2.30
2018-07-29T10:44:46.426Z,2.40
2018-07-29T10:47:14.868Z,2.27
2018-07-29T10:49:43.304Z,2.40
2018-07-29T10:52:11.705Z,2.52
2018-07-29T10:54:40.182Z,2.55
2018-07-29T10:57:08.631Z,2.20
2018-07-29T10:59:37.051Z,2.52
2018-07-29T11:02:05.512Z,2.02
2018-07-29T11:04:33.940Z,2.20
2018-07-29T11:07:02.350Z,2.22
2018-07-29T11:09:30.785Z,2.47
2018-07-29T11:11:59.189Z,2.12
2018-07-29T11:14:27.702Z,1.92
2018-07-29T11:16:56.110Z,1.60
2018-07-29T11:19:24.543Z,2.02
2018-07-29T11:21:52.982Z,2.10
2018-07-29T11:24:21.120Z,2.10
2018-07-29T11:26:49.525Z,2.35
2018-07-29T11:29:17.992Z,2.70
2018-07-29T11:31:46.533Z,2.98
2018-07-29T11:34:14.980Z,2.52
2018-07-29T11:36:43.388Z,2.62
2018-07-29T11:39:12.153Z,2.47
2018-07-29T11:41:40.599Z,2.75
2018-07-29T11:44:09.064Z,2.67
2018-07-29T11:46:37.473Z,3.20
2018-07-29T11:49:05.918Z,2.25
2018-07-29T11:51:34.368Z,2.60
2018-07-29T11:54:02.797Z,2.80
2018-07-29T11:56:30.949Z,2.58
2018-07-29T11:58:59.457Z,2.50
2018-07-29T12:01:27.967Z,2.22
2018-07-29T12:03:56.607Z,2.45
2018-07-29T12:06:25.093Z,2.27
2018-07-29T12:08:53.496Z,2.33
2018-07-29T12:11:22.085Z,1.98
2018-07-29T12:13:50.627Z,2.20
2018-07-29T12:16:19.125Z,2.20
2018-07-29T12:18:47.525Z,2.47
2018-07-29T12:21:15.992Z,2.62
2018-07-29T12:23:44.388Z,2.55
2018-07-29T12:26:12.841Z,2.27
2018-07-29T12:28:41.255Z,1.90
2018-07-29T12:31:09.714Z,2.50
2018-07-29T12:33:38.142Z,2.08
2018-07-29T12:36:07.293Z,2.33
2018-07-29T12:38:35.788Z,2.20
2018-07-29T12:41:04.358Z,2.30
2018-07-29T12:43:32.809Z,2.33
2018-07-29T12:46:01.284Z,2.30
2018-07-29T12:48:29.698Z,2.35
2018-07-29T12:50:58.200Z,2.33
2018-07-29T12:53:26.697Z,2.47
2018-07-29T12:55:55.189Z,2.22
2018-07-29T12:58:23.639Z,2.37
2018-07-29T13:00:52.151Z,2.60
2018-07-29T13:03:20.565Z,2.40
2018-07-29T13:05:49.128Z,2.20
2018-07-29T13:08:17.653Z,2.58
2018-07-29T13:10:46.155Z,2.12
2018-07-29T13:13:14.585Z,2.10
2018-07-29T13:15:43.086Z,2.33
2018-07-29T13:18:11.513Z,2.90
2018-07-29T13:20:39.980Z,2.33
2018-07-29T13:23:08.449Z,2.40
2018-07-29T13:25:37.008Z,1.98
2018-07-29T13:28:05.810Z,2.27
2018-07-29T13:30:34.235Z,1.95
2018-07-29T13:33:02.652Z,2.42
2018-07-29T13:35:31.134Z,2.12
2018-07-29T13:37:59.564Z,2.35
2018-07-29T13:40:28.159Z,2.40
2018-07-29T13:42:56.648Z,2.60
2018-07-29T13:45:25.102Z,2.33
2018-07-29T13:47:53.571Z,2.40
2018-07-29T13:50:22.003Z,2.30
2018-07-29T13:52:50.454Z,1.95
2018-07-29T13:55:18.576Z,2.08
2018-07-29T13:57:47.035Z,2.20
2018-07-29T14:00:18.211Z,1.95
2018-07-29T14:02:46.796Z,2.05
2018-07-29T14:05:15.260Z,2.33
2018-07-29T14:07:43.692Z,2.00
2018-07-29T14:10:12.160Z,1.87
2018-07-29T14:12:40.637Z,1.67
2018-07-29T14:15:09.117Z,2.10
2018-07-29T14:17:37.568Z,2.33
2018-07-29T14:20:06.328Z,1.62
2018-07-29T14:22:34.864Z,1.95
2018-07-29T14:25:03.344Z,2.30
2018-07-29T14:27:31.796Z,2.10
2018-07-29T14:30:00.287Z,2.27
2018-07-29T14:32:28.744Z,2.05
2018-07-29T14:34:57.232Z,2.45
2018-07-29T14:37:25.689Z,2.15
2018-07-29T14:39:54.148Z,2.25
2018-07-29T14:42:22.628Z,2.15
2018-07-29T14:44:51.054Z,2.00
2018-07-29T14:47:19.508Z,1.90
2018-07-29T14:49:47.955Z,2.15
2018-07-29T14:52:16.390Z,2.17
2018-07-29T14:54:44.492Z,2.00
2018-07-29T14:57:12.656Z,2.00
2018-07-29T14:59:41.293Z,2.35
2018-07-29T15:02:09.765Z,2.52
2018-07-29T15:04:38.256Z,2.10
2018-07-29T15:07:06.689Z,2.17
2018-07-29T15:09:35.090Z,2.47
2018-07-29T15:12:03.544Z,2.12
2018-07-29T15:14:32.006Z,2.42
2018-07-29T15:17:00.448Z,2.17
2018-07-29T15:19:28.880Z,2.08
2018-07-29T15:21:57.310Z,2.58
2018-07-29T15:24:25.761Z,2.45
2018-07-29T15:26:53.955Z,2.10
2018-07-29T15:29:22.400Z,3.22
2018-07-29T15:31:50.806Z,2.70
2018-07-29T15:34:19.328Z,2.20
2018-07-29T15:36:47.418Z,2.35
2018-07-29T15:39:15.846Z,2.58
2018-07-29T15:41:44.321Z,2.40
2018-07-29T15:44:12.785Z,1.95
2018-07-29T15:46:41.204Z,2.00
2018-07-29T15:49:09.677Z,2.20
2018-07-29T15:51:38.104Z,2.60
2018-07-29T15:54:06.699Z,2.70
2018-07-29T15:56:35.148Z,2.52
2018-07-29T15:59:03.669Z,2.55
2018-07-29T16:01:32.131Z,2.42
2018-07-29T16:04:00.581Z,2.20
2018-07-29T16:06:28.995Z,2.58
2018-07-29T16:08:57.444Z,2.83
2018-07-29T16:11:25.877Z,2.50
2018-07-29T16:13:54.330Z,2.70
2018-07-29T16:16:23.248Z,2.72
2018-07-29T16:18:51.693Z,2.47
2018-07-29T16:21:20.138Z,2.85
2018-07-29T16:23:48.592Z,3.42
2018-07-29T16:26:17.024Z,3.20
2018-07-29T16:28:45.485Z,2.80
2018-07-29T16:31:13.924Z,2.75
2018-07-29T16:33:42.345Z,2.83
2018-07-29T16:36:10.749Z,2.80
2018-07-29T16:38:39.183Z,2.33
2018-07-29T16:41:07.633Z,2.75
2018-07-29T16:43:36.105Z,3.02
2018-07-29T16:46:04.541Z,3.15
2018-07-29T16:48:33.051Z,2.40
2018-07-29T16:51:01.464Z,2.65
2018-07-29T16:53:29.924Z,2.98
2018-07-29T16:55:58.350Z,2.58
2018-07-29T16:58:26.797Z,2.37
2018-07-29T17:00:55.240Z,2.50
2018-07-29T17:03:23.696Z,3.10
2018-07-29T17:05:52.116Z,2.95
2018-07-29T17:08:20.542Z,2.75
2018-07-29T17:10:48.999Z,2.42
2018-07-29T17:13:17.493Z,2.80
2018-07-29T17:15:45.992Z,2.40
2018-07-29T17:18:14.441Z,2.22
2018-07-29T17:20:42.892Z,2.60
2018-07-29T17:23:11.332Z,2.85
2018-07-29T17:25:40.073Z,2.55
2018-07-29T17:28:08.494Z,2.10
2018-07-29T17:30:36.632Z,2.10
2018-07-29T17:33:05.257Z,3.00
2018-07-29T17:35:33.692Z,2.47
2018-07-29T17:38:02.133Z,2.42
2018-07-29T17:40:30.597Z,2.90
2018-07-29T17:42:59.033Z,3.30
2018-07-29T17:45:27.548Z,2.65
2018-07-29T17:47:55.952Z,2.90
2018-07-29T17:50:24.396Z,2.75
2018-07-29T17:52:52.811Z,3.20
2018-07-29T17:55:21.373Z,2.62
2018-07-29T17:57:49.783Z,3.15
2018-07-29T18:00:17.940Z,2.72
2018-07-29T18:02:46.345Z,2.90
2018-07-29T18:05:14.836Z,2.70
2018-07-29T18:07:43.492Z,3.02
2018-07-29T18:10:11.973Z,3.00
2018-07-29T18:12:40.416Z,2.52
2018-07-29T18:15:08.847Z,2.70
2018-07-29T18:17:37.456Z,3.00
2018-07-29T18:20:05.957Z,3.00
2018-07-29T18:22:34.372Z,2.90
2018-07-29T18:25:02.816Z,2.87
2018-07-29T18:27:31.454Z,3.27
2018-07-29T18:29:59.832Z,2.90
2018-07-29T18:32:28.265Z,2.83
2018-07-29T18:34:56.443Z,3.10
2018-07-29T18:37:24.889Z,3.37
2018-07-29T18:39:53.729Z,3.10
2018-07-29T18:42:22.184Z,2.90
2018-07-29T18:44:50.612Z,3.20
2018-07-29T18:47:19.012Z,2.77
2018-07-29T18:49:47.130Z,3.20
2018-07-29T18:52:15.520Z,3.17
2018-07-29T18:54:43.954Z,3.20
2018-07-29T18:57:12.360Z,3.02
2018-07-29T18:59:40.780Z,3.27
2018-07-29T19:02:09.255Z,3.30
2018-07-29T19:04:37.672Z,3.05
2018-07-29T19:07:06.158Z,3.17
2018-07-29T19:09:34.593Z,3.33
2018-07-29T19:12:03.051Z,3.40
2018-07-29T19:14:31.477Z,3.90
2018-07-29T19:16:59.981Z,4.47
2018-07-29T19:19:28.639Z,6.22
2018-07-29T19:21:57.108Z,8.35
2018-07-29T19:24:25.555Z,9.25
2018-07-29T19:26:53.980Z,7.97
2018-07-29T19:29:22.414Z,8.90
2018-07-29T19:31:50.845Z,8.65
2018-07-29T19:34:19.316Z,12.03
2018-07-29T19:36:47.743Z,11.25
2018-07-29T19:39:15.875Z,9.43
2018-07-29T19:41:44.333Z,4.08
2018-07-29T19:44:12.777Z,3.80
2018-07-29T19:46:41.232Z,4.10
2018-07-29T19:49:09.620Z,3.83
2018-07-29T19:51:38.064Z,4.28
2018-07-29T19:54:06.558Z,4.62
2018-07-29T19:56:35.019Z,5.83
2018-07-29T19:59:03.495Z,7.40
2018-07-29T20:01:32.375Z,6.50
2018-07-29T20:04:00.852Z,6.42
2018-07-29T20:06:29.307Z,6.35
2018-07-29T20:08:57.717Z,6.60
2018-07-29T20:11:26.356Z,7.35
2018-07-29T20:13:54.762Z,4.78
2018-07-29T20:16:23.200Z,5.22
2018-07-29T20:18:51.664Z,4.83
2018-07-29T20:21:20.187Z,4.37
2018-07-29T20:23:48.671Z,4.87
2018-07-29T20:26:17.219Z,4.67
2018-07-29T20:28:45.497Z,4.55
2018-07-29T20:31:14.087Z,4.30
2018-07-29T20:33:42.514Z,4.80
2018-07-29T20:36:10.963Z,4.62
2018-07-29T20:38:39.355Z,3.92
2018-07-29T20:41:07.769Z,4.40
2018-07-29T20:43:36.252Z,5.25
2018-07-29T20:46:05.022Z,4.72
2018-07-29T20:48:33.473Z,4.70
2018-07-29T20:51:02.098Z,4.67
2018-07-29T20:53:30.418Z,5.03
2018-07-29T20:55:58.963Z,4.00
2018-07-29T20:58:27.445Z,4.92
2018-07-29T21:00:55.561Z,4.22
2018-07-29T21:03:24.000Z,4.92
2018-07-29T21:05:52.440Z,4.67
2018-07-29T21:08:20.889Z,4.28
2018-07-29T21:10:49.324Z,4.90
2018-07-29T21:13:17.744Z,4.92
2018-07-29T21:15:46.140Z,4.60
2018-07-29T21:18:14.635Z,5.15
2018-07-29T21:20:43.032Z,5.30
2018-07-29T21:23:11.473Z,4.80
2018-07-29T21:25:39.873Z,5.12
2018-07-29T21:28:08.785Z,4.62
2018-07-29T21:30:37.185Z,4.53
2018-07-29T21:33:05.645Z,4.95
2018-07-29T21:35:34.044Z,4.90
2018-07-29T21:38:02.478Z,4.80
2018-07-29T21:40:30.904Z,4.83
2018-07-29T21:42:59.365Z,4.90
2018-07-29T21:45:27.777Z,5.33
2018-07-29T21:47:56.206Z,5.22
2018-07-29T21:50:24.637Z,5.33
2018-07-29T21:52:53.076Z,5.53
2018-07-29T21:55:21.489Z,5.30
2018-07-29T21:57:49.941Z,4.95
2018-07-29T22:00:21.265Z,5.40
2018-07-29T22:02:49.724Z,5.03
2018-07-29T22:05:18.147Z,5.78
2018-07-29T22:07:46.632Z,5.53
2018-07-29T22:10:15.048Z,4.83
2018-07-29T22:12:43.488Z,5.15
2018-07-29T22:15:12.305Z,5.42
2018-07-29T22:17:41.407Z,5.55
2018-07-29T22:20:10.068Z,5.10
2018-07-29T22:22:38.873Z,5.15
2018-07-29T22:25:12.684Z,4.90
2018-07-29T22:27:40.832Z,5.05
2018-07-29T22:30:14.571Z,5.37
2018-07-29T22:32:43.027Z,5.62
2018-07-29T22:35:11.473Z,5.17
2018-07-29T22:37:40.090Z,5.12
2018-07-29T22:40:08.591Z,5.17
2018-07-29T22:42:37.024Z,5.47
2018-07-29T22:45:06.388Z,5.45
2018-07-29T22:47:34.845Z,5.33
2018-07-29T22:50:03.333Z,5.37
2018-07-29T22:52:31.757Z,4.95
2018-07-29T22:55:00.201Z,5.70
2018-07-29T22:57:28.622Z,5.80
2018-07-29T22:59:57.084Z,5.58
2018-07-29T23:02:26.270Z,5.12
2018-07-29T23:04:55.449Z,5.83
2018-07-29T23:07:24.251Z,6.08
2018-07-29T23:10:03.305Z,6.03
2018-07-29T23:12:31.750Z,5.85
2018-07-29T23:15:00.209Z,5.78
2018-07-29T23:17:29.146Z,6.30
2018-07-29T23:19:58.108Z,6.00
2018-07-29T23:22:28.030Z,5.47
2018-07-29T23:24:56.822Z,6.15
2018-07-29T23:27:25.224Z,5.55
2018-07-29T23:29:54.208Z,5.55
2018-07-29T23:32:22.644Z,5.95
2018-07-29T23:34:51.792Z,5.25
2018-07-29T23:37:20.760Z,5.17
2018-07-29T23:39:50.123Z,5.17
2018-07-29T23:42:18.568Z,5.85
2018-07-29T23:44:47.026Z,5.40
2018-07-29T23:47:15.481Z,6.45
2018-07-29T23:49:43.925Z,6.05
2018-07-29T23:52:12.359Z,6.25
2018-07-29T23:54:40.838Z,5.95
2018-07-29T23:57:09.320Z,5.47
2018-07-29T23:59:37.760Z,5.92
